createdAt,value
2019-02-19T00:00:46.259Z,99.99
2019-02-19T00:01:46.412Z,99.99
2019-02-19T00:02:46.427Z,99.99
2019-02-19T00:03:46.441Z,99.99
2019-02-19T00:04:46.456Z,99.99
2019-02-19T00:06:01.138Z,99.99
2019-02-19T00:06:46.497Z,99.99
2019-02-19T00:07:46.493Z,99.99
2019-02-19T00:08:46.516Z,99.99
2019-02-19T00:09:46.520Z,99.99
2019-02-19T00:10:46.534Z,99.99
2019-02-19T00:11:46.551Z,99.99
2019-02-19T00:12:46.565Z,99.99
2019-02-19T00:13:46.576Z,99.99
2019-02-19T00:14:46.588Z,99.99
2019-02-19T00:15:46.603Z,99.99
2019-02-19T00:16:46.632Z,99.99
2019-02-19T00:17:46.637Z,99.99
2019-02-19T00:18:46.647Z,99.99
2019-02-19T00:19:46.658Z,99.99
2019-02-19T00:20:46.672Z,99.99
2019-02-19T00:22:01.358Z,99.99
2019-02-19T00:23:46.714Z,99.99
2019-02-19T00:24:46.727Z,99.99
2019-02-19T00:25:46.741Z,99.99
2019-02-19T00:26:46.755Z,99.99
2019-02-19T00:27:46.766Z,99.99
2019-02-19T00:29:46.795Z,99.99
2019-02-19T00:30:46.809Z,99.99
2019-02-19T00:31:46.825Z,99.99
2019-02-19T00:32:46.836Z,99.99
2019-02-19T00:33:46.850Z,99.99
2019-02-19T00:34:46.865Z,99.99
2019-02-19T00:35:46.638Z,99.99
2019-02-19T00:37:01.565Z,99.99
2019-02-19T00:37:46.905Z,99.99
2019-02-19T00:38:46.919Z,99.99
2019-02-19T00:39:46.933Z,99.99
2019-02-19T00:40:46.989Z,99.99
2019-02-19T00:41:46.960Z,99.99
2019-02-19T00:42:46.978Z,99.99
2019-02-19T00:44:46.999Z,99.99
2019-02-19T00:45:47.017Z,99.99
2019-02-19T00:46:47.032Z,99.99
2019-02-19T00:47:47.043Z,99.99
2019-02-19T00:48:47.075Z,99.99
2019-02-19T00:49:47.075Z,99.99
2019-02-19T00:50:47.083Z,99.99
2019-02-19T00:51:47.094Z,99.99
2019-02-19T00:52:47.116Z,99.99
2019-02-19T00:53:47.122Z,99.99
2019-02-19T00:54:47.138Z,99.99
2019-02-19T00:55:47.150Z,99.99
2019-02-19T00:56:47.170Z,99.99
2019-02-19T00:57:47.175Z,99.99
2019-02-19T00:58:47.193Z,99.99
2019-02-19T00:59:47.205Z,99.99
2019-02-19T01:00:47.219Z,99.99
2019-02-19T01:01:47.232Z,99.99
2019-02-19T01:02:47.246Z,99.99
2019-02-19T01:03:47.257Z,99.99
2019-02-19T01:04:47.272Z,99.99
2019-02-19T01:05:47.285Z,99.99
2019-02-19T01:06:47.300Z,99.99
2019-02-19T01:07:47.313Z,99.99
2019-02-19T01:09:02.002Z,99.99
2019-02-19T01:09:47.345Z,99.99
2019-02-19T01:10:47.353Z,99.99
2019-02-19T01:11:47.364Z,99.99
2019-02-19T01:12:47.377Z,99.99
2019-02-19T01:13:47.393Z,99.99
2019-02-19T01:15:47.423Z,99.99
2019-02-19T01:16:47.439Z,99.99
2019-02-19T01:17:47.445Z,99.99
2019-02-19T01:18:47.465Z,99.99
2019-02-19T01:19:47.474Z,99.99
2019-02-19T01:20:47.488Z,99.99
2019-02-19T01:21:47.500Z,99.99
2019-02-19T01:22:47.519Z,99.99
2019-02-19T01:23:47.525Z,99.99
2019-02-19T01:25:02.213Z,99.99
2019-02-19T01:25:47.566Z,99.99
2019-02-19T01:26:47.571Z,99.99
2019-02-19T01:27:47.582Z,99.99
2019-02-19T01:28:47.595Z,99.99
2019-02-19T01:29:47.606Z,99.99
2019-02-19T01:30:47.622Z,99.99
2019-02-19T01:31:47.634Z,99.99
2019-02-19T01:32:47.646Z,99.99
2019-02-19T01:33:47.661Z,99.99
2019-02-19T01:34:47.677Z,99.99
2019-02-19T01:35:47.689Z,99.99
2019-02-19T01:36:47.705Z,99.99
2019-02-19T01:37:47.715Z,99.99
2019-02-19T01:38:47.729Z,99.99
2019-02-19T01:39:47.919Z,99.99
2019-02-19T01:41:02.425Z,99.99
2019-02-19T01:41:47.765Z,99.99
2019-02-19T01:42:47.781Z,99.99
2019-02-19T01:44:47.807Z,99.99
2019-02-19T01:45:47.820Z,99.99
2019-02-19T01:46:47.932Z,99.99
2019-02-19T01:47:47.847Z,99.99
2019-02-19T01:48:47.858Z,99.99
2019-02-19T01:49:47.872Z,99.99
2019-02-19T01:50:47.985Z,99.99
2019-02-19T01:51:47.898Z,99.99
2019-02-19T01:52:47.910Z,99.99
2019-02-19T01:53:47.924Z,99.99
2019-02-19T01:54:47.953Z,99.99
2019-02-19T01:55:47.953Z,99.99
2019-02-19T01:57:02.658Z,99.99
2019-02-19T01:57:47.980Z,99.99
2019-02-19T01:58:48.000Z,99.99
2019-02-19T01:59:47.758Z,99.99
2019-02-19T02:00:48.016Z,99.99
2019-02-19T02:01:48.033Z,99.99
2019-02-19T02:02:48.157Z,99.99
2019-02-19T02:03:48.057Z,99.99
2019-02-19T02:04:48.070Z,99.99
2019-02-19T02:05:48.083Z,99.99
2019-02-19T02:06:48.196Z,99.99
2019-02-19T02:07:48.110Z,99.99
2019-02-19T02:08:48.123Z,99.99
2019-02-19T02:09:48.136Z,99.99
2019-02-19T02:10:48.150Z,99.99
2019-02-19T02:12:02.835Z,99.99
2019-02-19T02:12:48.176Z,99.99
2019-02-19T02:13:48.191Z,99.99
2019-02-19T02:14:48.202Z,99.99
2019-02-19T02:15:48.216Z,99.99
2019-02-19T02:16:48.244Z,99.99
2019-02-19T02:17:48.390Z,99.99
2019-02-19T02:18:48.273Z,99.99
2019-02-19T02:19:48.284Z,99.99
2019-02-19T02:20:48.296Z,99.99
2019-02-19T02:21:48.309Z,99.99
2019-02-19T02:22:48.326Z,99.99
2019-02-19T02:23:48.339Z,99.99
2019-02-19T02:25:48.363Z,99.99
2019-02-19T02:26:48.380Z,99.99
2019-02-19T02:27:48.394Z,99.99
2019-02-19T02:28:48.403Z,99.99
2019-02-19T02:29:48.414Z,99.99
2019-02-19T02:30:48.440Z,99.99
2019-02-19T02:31:48.456Z,99.99
2019-02-19T02:32:48.454Z,99.99
2019-02-19T02:34:48.484Z,99.99
2019-02-19T02:35:48.495Z,99.99
2019-02-19T02:36:48.514Z,99.99
2019-02-19T02:38:48.536Z,99.99
2019-02-19T02:39:48.547Z,99.99
2019-02-19T02:40:48.573Z,99.99
2019-02-19T02:41:48.583Z,99.99
2019-02-19T02:42:48.607Z,99.99
2019-02-19T02:44:03.269Z,99.99
2019-02-19T02:44:48.612Z,99.99
2019-02-19T02:45:55.816Z,99.99
2019-02-19T02:46:48.677Z,99.99
2019-02-19T02:47:48.655Z,99.99
2019-02-19T02:48:48.665Z,99.99
2019-02-19T02:49:48.686Z,99.99
2019-02-19T02:50:48.693Z,99.99
2019-02-19T02:52:48.719Z,99.99
2019-02-19T02:53:48.747Z,99.99
2019-02-19T02:54:48.743Z,99.99
2019-02-19T02:57:48.786Z,99.99
2019-02-19T02:58:48.799Z,99.99
2019-02-19T03:00:03.472Z,99.99
2019-02-19T03:00:48.823Z,99.99
2019-02-19T03:01:48.844Z,99.99
2019-02-19T03:02:48.906Z,99.99
2019-02-19T03:03:48.872Z,99.99
2019-02-19T03:04:48.883Z,99.99
2019-02-19T03:05:48.904Z,99.99
2019-02-19T03:06:48.902Z,99.99
2019-02-19T03:07:48.916Z,99.99
2019-02-19T03:08:48.928Z,99.99
2019-02-19T03:09:48.941Z,99.99
2019-02-19T03:11:48.973Z,99.99
2019-02-19T03:12:49.015Z,99.99
2019-02-19T03:13:48.997Z,99.99
2019-02-19T03:14:49.008Z,99.99
2019-02-19T03:16:03.684Z,99.99
2019-02-19T03:16:49.033Z,99.99
2019-02-19T03:17:49.061Z,99.99
2019-02-19T03:18:49.070Z,99.99
2019-02-19T03:19:49.093Z,99.99
2019-02-19T03:20:49.091Z,99.99
2019-02-19T03:21:49.102Z,99.99
2019-02-19T03:22:49.118Z,99.99
2019-02-19T03:23:49.128Z,99.99
2019-02-19T03:24:49.143Z,99.99
2019-02-19T03:25:49.166Z,99.99
2019-02-19T03:26:49.170Z,99.99
2019-02-19T03:27:49.180Z,99.99
2019-02-19T03:28:49.201Z,99.99
2019-02-19T03:29:49.217Z,99.99
2019-02-19T03:30:49.232Z,99.99
2019-02-19T03:32:03.896Z,99.99
2019-02-19T03:32:49.275Z,99.99
2019-02-19T03:33:49.265Z,99.99
2019-02-19T03:34:49.298Z,99.99
2019-02-19T03:35:49.289Z,99.99
2019-02-19T03:36:49.303Z,99.99
2019-02-19T03:37:49.413Z,99.99
2019-02-19T03:38:49.341Z,99.99
2019-02-19T03:39:49.343Z,99.99
2019-02-19T03:40:49.358Z,99.99
2019-02-19T03:41:49.365Z,99.99
2019-02-19T03:42:49.379Z,99.99
2019-02-19T03:43:49.390Z,99.99
2019-02-19T03:45:49.433Z,99.99
2019-02-19T03:47:04.094Z,99.99
2019-02-19T03:47:49.461Z,99.99
2019-02-19T03:48:49.457Z,99.99
2019-02-19T03:49:49.470Z,99.99
2019-02-19T03:50:49.484Z,99.99
2019-02-19T03:51:49.517Z,99.99
2019-02-19T03:52:49.513Z,99.99
2019-02-19T03:53:49.522Z,99.99
2019-02-19T03:54:49.535Z,99.99
2019-02-19T03:55:49.553Z,99.99
2019-02-19T03:56:49.562Z,99.99
2019-02-19T03:57:49.581Z,99.99
2019-02-19T03:58:49.588Z,99.99
2019-02-19T04:00:49.620Z,99.99
2019-02-19T04:01:49.631Z,99.99
2019-02-19T04:02:49.641Z,99.99
2019-02-19T04:03:49.656Z,99.99
2019-02-19T04:04:49.668Z,99.99
2019-02-19T04:05:49.681Z,99.99
2019-02-19T04:06:49.694Z,99.99
2019-02-19T04:07:49.712Z,99.99
2019-02-19T04:08:49.731Z,99.99
2019-02-19T04:09:49.733Z,99.99
2019-02-19T04:10:49.746Z,99.99
2019-02-19T04:11:49.759Z,99.99
2019-02-19T04:12:49.776Z,99.99
2019-02-19T04:13:49.788Z,99.99
2019-02-19T04:14:49.799Z,99.99
2019-02-19T04:15:49.815Z,99.99
2019-02-19T04:16:51.369Z,99.99
2019-02-19T04:17:49.842Z,99.99
2019-02-19T04:19:04.519Z,99.99
2019-02-19T04:19:49.867Z,99.99
2019-02-19T04:20:49.882Z,99.99
2019-02-19T04:21:49.898Z,99.99
2019-02-19T04:22:49.907Z,99.99
2019-02-19T04:23:49.922Z,99.99
2019-02-19T04:24:49.949Z,99.99
2019-02-19T04:25:49.944Z,99.99
2019-02-19T04:26:49.962Z,99.99
2019-02-19T04:28:49.984Z,99.99
2019-02-19T04:30:50.014Z,99.99
2019-02-19T04:32:50.039Z,99.99
2019-02-19T04:33:50.052Z,99.99
2019-02-19T04:35:04.726Z,99.99
2019-02-19T04:35:50.077Z,99.99
2019-02-19T04:36:50.093Z,99.99
2019-02-19T04:37:50.105Z,99.99
2019-02-19T04:38:50.118Z,99.99
2019-02-19T04:39:50.136Z,99.99
2019-02-19T04:40:50.143Z,99.99
2019-02-19T04:41:50.156Z,99.99
2019-02-19T04:42:50.173Z,99.99
2019-02-19T04:43:50.189Z,99.99
2019-02-19T04:44:50.205Z,99.99
2019-02-19T04:45:50.213Z,99.99
2019-02-19T04:46:50.324Z,99.99
2019-02-19T04:47:50.235Z,99.99
2019-02-19T04:48:50.352Z,99.99
2019-02-19T04:49:50.263Z,99.99
2019-02-19T04:51:04.940Z,99.99
2019-02-19T04:51:50.291Z,99.99
2019-02-19T04:52:50.306Z,99.99
2019-02-19T04:53:50.336Z,99.99
2019-02-19T04:54:50.332Z,99.99
2019-02-19T04:55:50.342Z,99.99
2019-02-19T04:56:50.358Z,99.99
2019-02-19T04:57:50.369Z,99.99
2019-02-19T04:58:50.386Z,99.99
2019-02-19T04:59:50.398Z,99.99
2019-02-19T05:00:50.413Z,99.99
2019-02-19T05:01:50.425Z,99.99
2019-02-19T05:02:51.575Z,99.99
2019-02-19T05:04:50.463Z,99.99
2019-02-19T05:05:50.475Z,99.99
2019-02-19T05:07:05.152Z,99.99
2019-02-19T05:07:50.507Z,99.99
2019-02-19T05:08:50.522Z,99.99
2019-02-19T05:09:50.543Z,99.99
2019-02-19T05:10:50.545Z,99.99
2019-02-19T05:11:50.557Z,99.99
2019-02-19T05:12:50.570Z,99.99
2019-02-19T05:13:50.587Z,99.99
2019-02-19T05:14:50.615Z,99.99
2019-02-19T05:15:50.618Z,99.99
2019-02-19T05:16:50.623Z,99.99
2019-02-19T05:17:50.637Z,99.99
2019-02-19T05:18:50.650Z,99.99
2019-02-19T05:19:50.671Z,99.99
2019-02-19T05:20:50.677Z,99.99
2019-02-19T05:22:05.359Z,99.99
2019-02-19T05:22:50.709Z,99.99
2019-02-19T05:23:50.720Z,99.99
2019-02-19T05:24:50.739Z,99.99
2019-02-19T05:25:50.765Z,99.99
2019-02-19T05:26:50.760Z,99.99
2019-02-19T05:27:50.775Z,99.99
2019-02-19T05:28:50.786Z,99.99
2019-02-19T05:29:50.802Z,99.99
2019-02-19T05:30:50.813Z,99.99
2019-02-19T05:31:50.826Z,99.99
2019-02-19T05:33:50.856Z,99.99
2019-02-19T05:34:50.871Z,99.99
2019-02-19T05:35:50.880Z,99.99
2019-02-19T05:36:50.901Z,99.99
2019-02-19T05:37:50.911Z,99.99
2019-02-19T05:38:50.927Z,99.99
2019-02-19T05:39:50.936Z,99.99
2019-02-19T05:40:50.950Z,99.99
2019-02-19T05:41:50.962Z,99.99
2019-02-19T05:42:50.979Z,99.99
2019-02-19T05:43:50.989Z,99.99
2019-02-19T05:44:50.757Z,99.99
2019-02-19T05:45:51.017Z,99.99
2019-02-19T05:46:52.583Z,99.99
2019-02-19T05:47:51.065Z,99.99
2019-02-19T05:48:51.057Z,99.99
2019-02-19T05:49:51.070Z,99.99
2019-02-19T05:50:51.097Z,99.99
2019-02-19T05:51:51.100Z,99.99
2019-02-19T05:52:51.112Z,99.99
2019-02-19T05:54:05.789Z,99.99
2019-02-19T05:54:51.137Z,99.99
2019-02-19T05:55:51.155Z,99.99
2019-02-19T05:56:51.169Z,99.99
2019-02-19T05:57:51.184Z,99.99
2019-02-19T05:58:51.195Z,99.99
2019-02-19T06:00:51.222Z,99.99
2019-02-19T06:01:51.235Z,99.99
2019-02-19T06:02:51.247Z,99.99
2019-02-19T06:03:51.014Z,99.99
2019-02-19T06:04:51.274Z,99.99
2019-02-19T06:05:51.289Z,99.99
2019-02-19T06:07:51.327Z,99.99
2019-02-19T06:08:51.329Z,99.99
2019-02-19T06:10:06.008Z,99.99
2019-02-19T06:10:51.364Z,99.99
2019-02-19T06:11:51.370Z,99.99
2019-02-19T06:12:51.383Z,99.99
2019-02-19T06:13:51.400Z,99.99
2019-02-19T06:14:51.411Z,99.99
2019-02-19T06:15:51.430Z,99.99
2019-02-19T06:16:58.235Z,99.99
2019-02-19T06:17:51.456Z,99.99
2019-02-19T06:18:51.465Z,99.99
2019-02-19T06:19:51.591Z,99.99
2019-02-19T06:20:51.498Z,99.99
2019-02-19T06:22:51.524Z,99.99
2019-02-19T06:24:51.553Z,99.99
2019-02-19T06:26:06.227Z,99.99
2019-02-19T06:26:51.586Z,99.99
2019-02-19T06:27:51.599Z,99.99
2019-02-19T06:28:51.608Z,99.99
2019-02-19T06:29:51.617Z,99.99
2019-02-19T06:30:51.634Z,99.99
2019-02-19T06:31:51.646Z,99.99
2019-02-19T06:32:51.660Z,99.99
2019-02-19T06:33:51.678Z,99.99
2019-02-19T06:35:51.718Z,99.99
2019-02-19T06:36:51.723Z,99.99
2019-02-19T06:38:51.845Z,99.99
2019-02-19T06:39:51.759Z,99.99
2019-02-19T06:40:51.774Z,99.99
2019-02-19T06:42:06.450Z,99.99
2019-02-19T06:42:51.801Z,99.99
2019-02-19T06:43:51.815Z,99.99
2019-02-19T06:44:51.833Z,99.99
2019-02-19T06:45:51.844Z,99.99
2019-02-19T06:46:51.862Z,99.99
2019-02-19T06:47:51.874Z,99.99
2019-02-19T06:48:51.887Z,99.99
2019-02-19T06:50:51.917Z,99.99
2019-02-19T06:51:51.933Z,99.99
2019-02-19T06:52:51.945Z,99.99
2019-02-19T06:53:51.963Z,99.99
2019-02-19T06:54:51.976Z,99.99
2019-02-19T06:55:51.993Z,99.99
2019-02-19T06:57:06.673Z,99.99
2019-02-19T06:57:52.020Z,99.99
2019-02-19T06:58:52.033Z,99.99
2019-02-19T06:59:52.048Z,99.99
2019-02-19T07:00:52.067Z,99.99
2019-02-19T07:01:52.080Z,99.99
2019-02-19T07:02:52.090Z,99.99
2019-02-19T07:03:52.108Z,99.99
2019-02-19T07:04:52.123Z,99.99
2019-02-19T07:05:52.182Z,99.99
2019-02-19T07:06:52.154Z,99.99
2019-02-19T07:07:52.170Z,99.99
2019-02-19T07:08:52.182Z,99.99
2019-02-19T07:10:52.213Z,99.99
2019-02-19T07:11:52.228Z,99.99
2019-02-19T07:12:52.247Z,99.99
2019-02-19T07:13:52.258Z,99.99
2019-02-19T07:14:52.274Z,99.99
2019-02-19T07:16:52.355Z,99.91
2019-02-19T07:17:52.322Z,99.54
2019-02-19T07:18:52.090Z,98.68
2019-02-19T07:19:52.353Z,98.11
2019-02-19T07:20:52.368Z,97.74
2019-02-19T07:21:52.388Z,97.64
2019-02-19T07:22:52.411Z,97.17
2019-02-19T07:23:52.419Z,97.26
2019-02-19T07:24:52.433Z,97.45
2019-02-19T07:25:52.553Z,96.97
2019-02-19T07:26:52.478Z,96.41
2019-02-19T07:27:52.485Z,95.89
2019-02-19T07:29:07.166Z,96.17
2019-02-19T07:29:52.521Z,95.51
2019-02-19T07:30:52.537Z,95.79
2019-02-19T07:31:52.572Z,95.41
2019-02-19T07:32:52.671Z,95.12
2019-02-19T07:33:52.589Z,94.84
2019-02-19T07:34:52.607Z,94.08
2019-02-19T07:35:52.623Z,94.27
2019-02-19T07:36:52.648Z,93.32
2019-02-19T07:37:52.659Z,93.41
2019-02-19T07:38:52.677Z,93.41
2019-02-19T07:39:52.694Z,93.56
2019-02-19T07:40:52.716Z,93.84
2019-02-19T07:42:52.750Z,93.18
2019-02-19T07:43:54.183Z,92.8
2019-02-19T07:45:07.444Z,93.18
2019-02-19T07:45:54.702Z,92.51
2019-02-19T07:46:52.815Z,92.61
2019-02-19T07:47:52.837Z,92.42
2019-02-19T07:48:52.900Z,91.94
2019-02-19T07:49:52.866Z,92.23
2019-02-19T07:50:52.883Z,92.23
2019-02-19T07:51:52.906Z,92.04
2019-02-19T07:52:52.929Z,92.04
2019-02-19T07:53:52.936Z,91.75
2019-02-19T07:54:53.156Z,91.66
2019-02-19T07:55:52.972Z,91.38
2019-02-19T07:57:53.004Z,91.09
2019-02-19T07:58:53.027Z,91.28
2019-02-19T07:59:53.039Z,91.28
2019-02-19T08:01:07.719Z,90.71
2019-02-19T08:01:53.084Z,91.19
2019-02-19T08:02:53.096Z,90.9
2019-02-19T08:03:53.109Z,91.28
2019-02-19T08:04:53.126Z,91.19
2019-02-19T08:05:53.141Z,91.09
2019-02-19T08:06:53.158Z,91.09
2019-02-19T08:07:53.177Z,91.09
2019-02-19T08:08:53.193Z,91.09
2019-02-19T08:09:53.212Z,91.38
2019-02-19T08:11:53.247Z,91.04
2019-02-19T08:13:53.278Z,90.75
2019-02-19T08:14:53.303Z,90.75
2019-02-19T08:15:53.315Z,90.56
2019-02-19T08:17:07.998Z,89.9
2019-02-19T08:17:53.344Z,89.8
2019-02-19T08:18:53.362Z,89.42
2019-02-19T08:19:53.384Z,90.28
2019-02-19T08:20:53.395Z,90.19
2019-02-19T08:21:53.415Z,89.9
2019-02-19T08:22:53.429Z,89.9
2019-02-19T08:23:53.447Z,89.33
2019-02-19T08:24:53.463Z,89.8
2019-02-19T08:25:53.480Z,89.61
2019-02-19T08:26:53.497Z,89.8
2019-02-19T08:27:53.754Z,89.42
2019-02-19T08:29:53.548Z,89.28
2019-02-19T08:30:53.565Z,88.8
2019-02-19T08:32:08.247Z,88.8
2019-02-19T08:32:53.601Z,88.8
2019-02-19T08:33:53.623Z,88.42
2019-02-19T08:34:53.634Z,88.52
2019-02-19T08:35:53.666Z,88.52
2019-02-19T08:36:53.670Z,88.33
2019-02-19T08:37:53.685Z,87.85
2019-02-19T08:38:53.704Z,88.04
2019-02-19T08:39:53.720Z,88.13
2019-02-19T08:40:53.736Z,87.28
2019-02-19T08:41:53.767Z,87.85
2019-02-19T08:42:53.773Z,88.13
2019-02-19T08:43:53.789Z,87.32
2019-02-19T08:44:53.806Z,87.52
2019-02-19T08:45:53.825Z,86.47
2019-02-19T08:46:53.847Z,86.85
2019-02-19T08:47:53.864Z,86.18
2019-02-19T08:48:53.880Z,85.71
2019-02-19T08:49:53.893Z,85.99
2019-02-19T08:50:54.011Z,85.8
2019-02-19T08:51:58.432Z,85.14
2019-02-19T08:52:53.945Z,85.61
2019-02-19T08:53:53.966Z,85.71
2019-02-19T08:54:53.981Z,85.61
2019-02-19T08:55:53.998Z,85.33
2019-02-19T08:56:54.020Z,85.61
2019-02-19T08:57:54.303Z,85.47
2019-02-19T08:58:54.052Z,85.18
2019-02-19T08:59:54.072Z,85.18
2019-02-19T09:00:54.086Z,85.18
2019-02-19T09:01:54.105Z,85.28
2019-02-19T09:02:54.120Z,85.08
2019-02-19T09:04:08.803Z,85.18
2019-02-19T09:04:54.169Z,85.18
2019-02-19T09:05:54.176Z,85.18
2019-02-19T09:06:54.194Z,85.37
2019-02-19T09:07:54.208Z,85.47
2019-02-19T09:08:54.232Z,85.66
2019-02-19T09:09:54.249Z,85.85
2019-02-19T09:10:54.265Z,85.85
2019-02-19T09:11:54.280Z,85.37
2019-02-19T09:12:54.298Z,85.85
2019-02-19T09:13:54.316Z,85.28
2019-02-19T09:14:54.342Z,84.99
2019-02-19T09:16:54.375Z,84.23
2019-02-19T09:17:54.836Z,84.8
2019-02-19T09:18:54.403Z,84.8
2019-02-19T09:20:09.085Z,84.89
2019-02-19T09:20:54.541Z,84.75
2019-02-19T09:21:54.456Z,84.65
2019-02-19T09:22:54.473Z,84.7
2019-02-19T09:23:54.495Z,85.03
2019-02-19T09:24:54.509Z,85.03
2019-02-19T09:25:54.534Z,85.22
2019-02-19T09:26:54.545Z,84.75
2019-02-19T09:27:54.566Z,85.03
2019-02-19T09:28:54.582Z,84.84
2019-02-19T09:29:54.603Z,84.56
2019-02-19T09:30:54.617Z,84.94
2019-02-19T09:32:54.652Z,84.65
2019-02-19T09:33:54.670Z,84.46
2019-02-19T09:34:55.172Z,84.36
2019-02-19T09:36:09.373Z,84.94
2019-02-19T09:36:54.727Z,84.27
2019-02-19T09:37:54.740Z,84.75
2019-02-19T09:38:54.763Z,85.03
2019-02-19T09:39:54.788Z,84.75
2019-02-19T09:40:54.799Z,85.22
2019-02-19T09:41:54.828Z,85.13
2019-02-19T09:42:54.829Z,85.13
2019-02-19T09:43:54.851Z,85.32
2019-02-19T09:44:54.867Z,85.41
2019-02-19T09:45:54.904Z,85.22
2019-02-19T09:46:54.905Z,85.41
2019-02-19T09:48:03.526Z,85.41
2019-02-19T09:48:54.937Z,85.7
2019-02-19T09:49:54.954Z,85.89
2019-02-19T09:50:54.977Z,85.8
2019-02-19T09:52:09.656Z,85.7
2019-02-19T09:53:02.376Z,85.89
2019-02-19T09:53:55.065Z,85.7
2019-02-19T09:54:55.044Z,85.22
2019-02-19T09:55:55.064Z,86.46
2019-02-19T09:56:55.079Z,85.41
2019-02-19T09:57:55.099Z,85.7
2019-02-19T09:58:55.115Z,86.08
2019-02-19T10:00:54.905Z,86.27
2019-02-19T10:01:55.171Z,86.94
2019-02-19T10:02:55.186Z,86.27
2019-02-19T10:03:55.220Z,86.08
2019-02-19T10:04:55.245Z,86.36
2019-02-19T10:05:55.239Z,86.46
2019-02-19T10:07:09.920Z,86.84
2019-02-19T10:07:55.890Z,86.18
2019-02-19T10:08:55.391Z,86.36
2019-02-19T10:09:55.311Z,86.08
2019-02-19T10:10:55.326Z,85.89
2019-02-19T10:11:55.361Z,86.27
2019-02-19T10:12:55.377Z,87.03
2019-02-19T10:13:55.381Z,86.46
2019-02-19T10:14:55.406Z,86.75
2019-02-19T10:15:55.415Z,86.75
2019-02-19T10:16:55.436Z,86.27
2019-02-19T10:17:55.453Z,86.65
2019-02-19T10:18:55.470Z,86.55
2019-02-19T10:20:55.522Z,86.94
2019-02-19T10:21:55.531Z,86.75
2019-02-19T10:22:55.539Z,87.6
2019-02-19T10:23:55.556Z,87.7
2019-02-19T10:24:55.581Z,86.46
2019-02-19T10:25:55.591Z,86.75
2019-02-19T10:26:55.607Z,87.51
2019-02-19T10:27:55.636Z,87.13
2019-02-19T10:28:55.745Z,87.32
2019-02-19T10:29:55.662Z,88.46
2019-02-19T10:30:55.677Z,88.08
2019-02-19T10:31:55.705Z,87.51
2019-02-19T10:33:55.732Z,87.7
2019-02-19T10:34:55.748Z,87.23
2019-02-19T10:35:55.772Z,86.84
2019-02-19T10:36:55.785Z,86.69
2019-02-19T10:37:55.803Z,86.79
2019-02-19T10:39:10.487Z,86.32
2019-02-19T10:39:55.838Z,86.22
2019-02-19T10:40:55.861Z,86.79
2019-02-19T10:41:55.874Z,86.69
2019-02-19T10:42:55.894Z,86.69
2019-02-19T10:43:55.908Z,87.07
2019-02-19T10:44:55.927Z,86.79
2019-02-19T10:45:55.963Z,86.98
2019-02-19T10:46:55.966Z,87.55
2019-02-19T10:47:55.981Z,87.79
2019-02-19T10:48:55.998Z,88.18
2019-02-19T10:49:56.020Z,88.75
2019-02-19T10:51:56.053Z,88.84
2019-02-19T10:52:56.085Z,88.56
2019-02-19T10:53:56.087Z,88.56
2019-02-19T10:55:10.792Z,88.84
2019-02-19T10:55:56.127Z,89.32
2019-02-19T10:56:56.140Z,88.93
2019-02-19T10:57:56.162Z,88.65
2019-02-19T10:58:56.185Z,88.93
2019-02-19T10:59:56.210Z,88.18
2019-02-19T11:00:56.231Z,88.41
2019-02-19T11:01:56.231Z,88.51
2019-02-19T11:02:56.250Z,87.93
2019-02-19T11:03:56.265Z,87.84
2019-02-19T11:04:56.286Z,87.93
2019-02-19T11:06:56.325Z,87.74
2019-02-19T11:08:56.356Z,87.93
2019-02-19T11:09:56.374Z,87.36
2019-02-19T11:11:11.056Z,87.55
2019-02-19T11:11:58.046Z,87.93
2019-02-19T11:12:56.432Z,87.07
2019-02-19T11:13:56.448Z,87.46
2019-02-19T11:14:56.464Z,87.55
2019-02-19T11:15:56.482Z,86.88
2019-02-19T11:16:56.501Z,87.55
2019-02-19T11:17:56.519Z,87.93
2019-02-19T11:18:56.540Z,86.79
2019-02-19T11:19:56.557Z,86.88
2019-02-19T11:20:56.587Z,86.51
2019-02-19T11:21:56.610Z,86.98
2019-02-19T11:23:56.680Z,86.79
2019-02-19T11:24:56.647Z,86.88
2019-02-19T11:25:56.662Z,86.32
2019-02-19T11:27:11.355Z,86.98
2019-02-19T11:27:56.700Z,86.88
2019-02-19T11:28:56.719Z,86.41
2019-02-19T11:29:56.738Z,86.41
2019-02-19T11:30:56.756Z,85.97
2019-02-19T11:31:56.772Z,86.07
2019-02-19T11:32:56.792Z,86.07
2019-02-19T11:34:56.829Z,86.36
2019-02-19T11:35:57.333Z,85.88
2019-02-19T11:36:56.879Z,85.12
2019-02-19T11:37:56.899Z,85.69
2019-02-19T11:38:56.905Z,85.41
2019-02-19T11:42:11.629Z,86.16
2019-02-19T11:42:57.077Z,85.41
2019-02-19T11:43:57.024Z,85.41
2019-02-19T11:44:57.015Z,85.02
2019-02-19T11:45:57.047Z,84.64
2019-02-19T11:46:57.055Z,84.2
2019-02-19T11:47:57.070Z,84.01
2019-02-19T11:48:58.670Z,83.92
2019-02-19T11:49:57.108Z,84.01
2019-02-19T11:50:57.126Z,84.07
2019-02-19T11:51:57.144Z,83.78
2019-02-19T11:52:57.170Z,83.97
2019-02-19T11:54:57.200Z,83.97
2019-02-19T11:55:57.222Z,84.55
2019-02-19T11:56:57.251Z,85.31
2019-02-19T11:57:57.260Z,85.31
2019-02-19T11:58:57.276Z,85.6
2019-02-19T11:59:57.296Z,85.31
2019-02-19T12:00:57.313Z,85.5
2019-02-19T12:01:57.331Z,85.21
2019-02-19T12:02:57.349Z,85.21
2019-02-19T12:03:57.371Z,85.31
2019-02-19T12:04:57.388Z,85.21
2019-02-19T12:05:57.409Z,85.21
2019-02-19T12:06:57.433Z,85.78
2019-02-19T12:07:57.443Z,85.6
2019-02-19T12:09:57.484Z,85.69
2019-02-19T12:10:57.499Z,85.78
2019-02-19T12:11:57.518Z,85.88
2019-02-19T12:12:57.535Z,85.64
2019-02-19T12:14:12.218Z,86.55
2019-02-19T12:14:57.713Z,86.26
2019-02-19T12:17:57.628Z,85.97
2019-02-19T12:18:57.646Z,85.97
2019-02-19T12:19:57.670Z,85.12
2019-02-19T12:20:57.685Z,85.69
2019-02-19T12:21:57.703Z,84.64
2019-02-19T12:22:57.725Z,84.36
2019-02-19T12:23:57.745Z,84.36
2019-02-19T12:24:57.767Z,84.74
2019-02-19T12:25:57.534Z,83.97
2019-02-19T12:26:57.800Z,84.55
2019-02-19T12:28:57.839Z,84.45
2019-02-19T12:30:12.519Z,85.12
2019-02-19T12:30:57.982Z,85.21
2019-02-19T12:31:57.894Z,83.88
2019-02-19T12:32:57.912Z,83.97
2019-02-19T12:33:57.940Z,84.16
2019-02-19T12:34:57.951Z,84.36
2019-02-19T12:35:57.964Z,84.07
2019-02-19T12:36:57.994Z,83.92
2019-02-19T12:37:58.003Z,83.92
2019-02-19T12:38:58.026Z,83.83
2019-02-19T12:39:58.052Z,83.92
2019-02-19T12:40:57.813Z,83.92
2019-02-19T12:41:58.078Z,83.64
2019-02-19T12:42:58.104Z,84.11
2019-02-19T12:43:58.115Z,83.92
2019-02-19T12:44:57.887Z,84.11
2019-02-19T12:46:12.817Z,84.11
2019-02-19T12:46:58.172Z,84.01
2019-02-19T12:47:58.194Z,84.01
2019-02-19T12:48:58.242Z,83.97
2019-02-19T12:49:58.230Z,84.2
2019-02-19T12:50:58.249Z,84.11
2019-02-19T12:51:58.272Z,83.83
2019-02-19T12:52:58.298Z,84.07
2019-02-19T12:53:58.314Z,83.78
2019-02-19T12:54:58.424Z,84.07
2019-02-19T12:55:58.343Z,83.83
2019-02-19T12:56:58.363Z,84.69
2019-02-19T12:57:58.386Z,84.2
2019-02-19T12:58:58.402Z,84.49
2019-02-19T12:59:59.221Z,83.83
2019-02-19T13:00:58.440Z,83.44
2019-02-19T13:02:13.130Z,83.92
2019-02-19T13:02:58.478Z,84.45
2019-02-19T13:03:58.499Z,84.3
2019-02-19T13:04:58.516Z,84.16
2019-02-19T13:05:58.681Z,84.01
2019-02-19T13:06:58.562Z,84.49
2019-02-19T13:07:58.570Z,82.97
2019-02-19T13:08:58.599Z,83.88
2019-02-19T13:09:58.629Z,84.2
2019-02-19T13:10:58.639Z,83.88
2019-02-19T13:11:58.661Z,84.11
2019-02-19T13:12:58.667Z,84.01
2019-02-19T13:13:58.692Z,83.31
2019-02-19T13:14:58.705Z,84.01
2019-02-19T13:15:58.724Z,84.3
2019-02-19T13:17:13.408Z,83.31
2019-02-19T13:17:58.769Z,83.59
2019-02-19T13:19:05.837Z,84.16
2019-02-19T13:19:58.902Z,83.88
2019-02-19T13:20:58.879Z,84.16
2019-02-19T13:21:58.841Z,83.69
2019-02-19T13:22:58.857Z,84.45
2019-02-19T13:23:58.887Z,84.07
2019-02-19T13:24:58.901Z,83.31
2019-02-19T13:25:58.918Z,83.88
2019-02-19T13:27:58.952Z,84.16
2019-02-19T13:28:58.984Z,83.5
2019-02-19T13:30:59.011Z,83.69
2019-02-19T13:31:59.027Z,83.5
2019-02-19T13:32:59.049Z,83.78
2019-02-19T13:33:59.064Z,83.88
2019-02-19T13:34:59.085Z,84.26
2019-02-19T13:35:59.113Z,84.16
2019-02-19T13:36:59.131Z,84.26
2019-02-19T13:37:59.139Z,84.07
2019-02-19T13:38:59.158Z,83.88
2019-02-19T13:39:59.177Z,83.97
2019-02-19T13:40:59.205Z,84.64
2019-02-19T13:41:59.214Z,84.92
2019-02-19T13:42:59.241Z,84.83
2019-02-19T13:43:59.252Z,83.97
2019-02-19T13:44:59.273Z,83.97
2019-02-19T13:45:59.290Z,84.36